createdAt,value
2018-09-03T17:11:45.678Z,65.00
2018-09-03T17:14:14.113Z,65.50
2018-09-03T17:16:42.542Z,66.40
2018-09-03T17:19:10.942Z,67.00
2018-09-03T17:21:39.531Z,67.90
2018-09-03T17:24:08.062Z,68.10
2018-09-03T17:26:36.523Z,67.80
2018-09-03T17:29:05.208Z,67.80
2018-09-03T17:31:33.834Z,67.70
2018-09-03T17:34:02.325Z,67.70
2018-09-03T17:36:30.724Z,67.80
2018-09-03T17:38:59.153Z,67.80
2018-09-03T17:41:27.586Z,68.00
2018-09-03T17:43:56.094Z,68.70
2018-09-03T17:46:24.666Z,69.90
2018-09-03T17:48:53.198Z,70.50
2018-09-03T17:51:21.652Z,71.20
2018-09-03T17:53:50.062Z,72.10
2018-09-03T17:56:18.497Z,72.90
2018-09-03T17:58:46.947Z,70.40
2018-09-03T18:01:15.545Z,70.50
2018-09-03T18:03:44.099Z,71.00
2018-09-03T18:06:12.897Z,71.30
2018-09-03T18:08:41.365Z,71.40
2018-09-03T18:11:09.814Z,71.20
2018-09-03T18:13:38.341Z,72.00
2018-09-03T18:16:07.014Z,72.70
2018-09-03T18:18:35.689Z,73.40
2018-09-03T18:21:04.380Z,73.80
2018-09-03T18:23:33.151Z,74.40
2018-09-03T18:26:01.858Z,74.70
2018-09-03T18:28:30.255Z,75.00
2018-09-03T18:30:58.771Z,76.10
2018-09-03T18:33:27.290Z,75.60
2018-09-03T18:35:55.914Z,75.70
2018-09-03T18:38:24.555Z,75.60
2018-09-03T18:40:53.246Z,75.80
2018-09-03T18:43:21.687Z,75.90
2018-09-03T18:45:50.327Z,76.20
2018-09-03T18:48:19.164Z,76.70
2018-09-03T18:50:47.895Z,76.60
2018-09-03T18:53:16.831Z,76.50
2018-09-03T18:55:45.732Z,76.50
2018-09-03T18:58:14.695Z,76.40
2018-09-03T19:00:43.170Z,76.40
2018-09-03T19:03:11.634Z,76.40
2018-09-03T19:05:40.281Z,76.80
2018-09-03T19:08:09.362Z,77.10
2018-09-03T19:10:38.332Z,77.20
2018-09-03T19:13:07.171Z,76.90
2018-09-03T19:15:36.144Z,77.20
2018-09-03T19:18:05.009Z,77.60
2018-09-03T19:20:34.094Z,77.70
2018-09-03T19:23:02.651Z,78.30
2018-09-03T19:25:31.090Z,78.60
2018-09-03T19:27:59.967Z,78.40
2018-09-03T19:30:28.862Z,78.00
2018-09-03T19:32:57.425Z,77.70
2018-09-03T19:35:26.052Z,77.50
2018-09-03T19:37:54.665Z,78.40
2018-09-03T19:40:23.184Z,78.70
2018-09-03T19:42:51.651Z,78.80
2018-09-03T19:45:20.216Z,80.00
2018-09-03T19:47:48.716Z,79.30
2018-09-03T19:50:17.371Z,79.60
2018-09-03T19:52:45.929Z,79.50
2018-09-03T19:55:14.370Z,79.80
2018-09-03T19:57:42.844Z,79.80
2018-09-03T20:00:11.474Z,80.00
2018-09-03T20:02:40.057Z,80.10
2018-09-03T20:05:08.500Z,80.10
2018-09-03T20:07:37.113Z,80.20
2018-09-03T20:10:05.954Z,80.20
2018-09-03T20:12:34.531Z,80.30
2018-09-03T20:15:03.052Z,80.30
2018-09-03T20:17:31.473Z,80.50
2018-09-03T20:19:59.939Z,80.50
2018-09-03T20:22:28.439Z,80.90
2018-09-03T20:24:56.973Z,81.20
2018-09-03T20:27:25.543Z,81.10
2018-09-03T20:29:54.131Z,81.30
2018-09-03T20:32:22.655Z,81.40
2018-09-03T20:34:51.198Z,81.30
2018-09-03T20:37:20.040Z,81.60
2018-09-03T20:39:48.539Z,81.60
2018-09-03T20:42:17.022Z,81.90
2018-09-03T20:44:45.702Z,81.90
2018-09-03T20:47:14.224Z,81.90
2018-09-03T20:49:42.677Z,82.10
2018-09-03T20:52:11.132Z,82.20
2018-09-03T20:54:39.647Z,82.30
2018-09-03T20:57:08.255Z,82.30
2018-09-03T20:59:36.779Z,82.40
2018-09-03T21:02:05.437Z,82.40
2018-09-03T21:04:33.986Z,82.40
2018-09-03T21:07:02.523Z,82.90
2018-09-03T21:09:31.100Z,83.60
2018-09-03T21:11:59.544Z,82.70
2018-09-03T21:14:28.132Z,83.00
2018-09-03T21:16:56.591Z,83.00
2018-09-03T21:19:25.127Z,83.00
2018-09-03T21:21:53.775Z,83.00
2018-09-03T21:24:22.414Z,83.10
2018-09-03T21:26:51.029Z,83.10
2018-09-03T21:29:19.527Z,83.10
2018-09-03T21:31:48.206Z,83.20
2018-09-03T21:34:16.661Z,83.30
2018-09-03T21:36:45.255Z,83.30
2018-09-03T21:39:13.888Z,83.40
2018-09-03T21:41:42.549Z,83.30
2018-09-03T21:44:11.139Z,83.30
2018-09-03T21:46:39.655Z,83.50
2018-09-03T21:49:08.198Z,83.50
2018-09-03T21:51:36.607Z,83.40
2018-09-03T21:54:05.237Z,83.40
2018-09-03T21:56:33.794Z,83.60
2018-09-03T21:59:02.287Z,83.50
2018-09-03T22:01:30.771Z,83.50
2018-09-03T22:03:59.322Z,83.70
2018-09-03T22:06:28.806Z,83.80
2018-09-03T22:08:57.262Z,83.80
2018-09-03T22:11:25.762Z,83.70
2018-09-03T22:13:54.194Z,83.80
2018-09-03T22:16:22.784Z,83.80
2018-09-03T22:18:51.398Z,83.70
2018-09-03T22:21:20.002Z,83.70
2018-09-03T22:23:48.574Z,83.80
2018-09-03T22:26:17.212Z,83.70
2018-09-03T22:28:45.625Z,83.80
2018-09-03T22:31:14.244Z,83.80
2018-09-03T22:33:42.762Z,83.70
2018-09-03T22:36:11.233Z,84.40
2018-09-03T22:38:39.766Z,84.50
2018-09-03T22:41:08.310Z,84.70
2018-09-03T22:43:36.774Z,84.80
2018-09-03T22:46:05.252Z,84.90
2018-09-03T22:48:33.730Z,85.00
2018-09-03T22:51:02.427Z,84.80
2018-09-03T22:53:30.923Z,84.70
2018-09-03T22:55:59.378Z,84.80
2018-09-03T22:58:27.761Z,84.90
2018-09-03T23:00:56.222Z,85.00
2018-09-03T23:03:24.723Z,85.00
2018-09-03T23:05:53.159Z,85.00
2018-09-03T23:08:21.624Z,84.90
2018-09-03T23:10:50.159Z,84.80
2018-09-03T23:13:18.786Z,84.70
2018-09-03T23:15:51.853Z,84.40
2018-09-03T23:18:21.716Z,84.60
2018-09-03T23:20:50.133Z,84.60
2018-09-03T23:23:18.612Z,84.50
2018-09-03T23:25:47.698Z,84.20
2018-09-03T23:28:16.353Z,84.20
2018-09-03T23:30:45.219Z,84.30
2018-09-03T23:33:13.788Z,84.40
2018-09-03T23:35:42.318Z,84.40
2018-09-03T23:38:10.730Z,84.40
2018-09-03T23:40:39.237Z,84.40
2018-09-03T23:43:07.800Z,84.50
2018-09-03T23:45:36.264Z,84.40
2018-09-03T23:48:04.915Z,84.60
2018-09-03T23:50:33.382Z,84.70
2018-09-03T23:53:02.031Z,84.90
2018-09-03T23:55:30.593Z,85.00
2018-09-03T23:57:59.211Z,85.00
